Time;durP1;ratioP1;P1;durP2;ratioP2;P2;SDS_P1;SDS_P2;PMS_P1;PMS_P2;Temp;Humidity;BMP_temperature;BMP_pressure;BME280_temperature;BME280_humidity;BME280_pressure;Samples;Min_cycle;Max_cycle;Signal;HPM_P1;HPM_P2
2023/12/17 17:07:53;;;;;;;49.23;25.08;;;;;;;4.03;100.00;101184.11;1829883;77;22141;-73
2023/12/17 17:10:22;;;;;;;50.92;27.75;;;;;;;3.98;100.00;101185.87;1788524;79;21570;-72
2023/12/17 17:12:52;;;;;;;49.83;26.23;;;;;;;4.00;100.00;101184.38;1788726;80;21134;-74
2023/12/17 17:15:20;;;;;;;48.28;26.57;;;;;;;3.99;100.00;101184.02;1769383;80;21147;-73
2023/12/17 17:17:49;;;;;;;49.58;26.30;;;;;;;4.00;100.00;101181.67;1788661;80;21215;-75
2023/12/17 17:20:18;;;;;;;48.35;26.68;;;;;;;3.99;100.00;101166.40;1788519;80;21139;-73
2023/12/17 17:22:46;;;;;;;47.48;25.15;;;;;;;4.01;100.00;101175.25;1768995;80;21162;-72
2023/12/17 17:25:15;;;;;;;43.17;24.72;;;;;;;4.02;100.00;101182.39;1788541;80;21194;-73
2023/12/17 17:27:43;;;;;;;44.63;23.92;;;;;;;4.03;100.00;101178.69;1788722;80;21122;-74
2023/12/17 17:30:13;;;;;;;44.95;23.38;;;;;;;4.01;100.00;101177.47;1788495;79;21154;-72
2023/12/17 17:32:42;;;;;;;45.65;24.25;;;;;;;4.03;100.00;101184.97;1788750;80;21142;-75
2023/12/17 17:35:11;;;;;;;47.70;25.10;;;;;;;4.02;100.00;101183.25;1788557;80;21099;-72
2023/12/17 17:37:39;;;;;;;45.25;25.05;;;;;;;4.04;100.00;101174.98;1788738;80;21142;-73
2023/12/17 17:40:10;;;;;;;48.45;26.05;;;;;;;4.03;100.00;101173.27;1768875;80;21190;-73
2023/12/17 17:42:39;;;;;;;57.65;27.95;;;;;;;4.02;100.00;101173.77;1788748;80;21104;-72
2023/12/17 17:45:09;;;;;;;46.08;24.05;;;;;;;4.03;100.00;101171.41;1744591;80;21579;-74
2023/12/17 17:47:38;;;;;;;47.53;26.55;;;;;;;4.04;100.00;101175.84;1788694;80;21099;-73
2023/12/17 17:50:09;;;;;;;46.60;25.70;;;;;;;4.03;100.00;101184.97;1788499;80;21174;-75
2023/12/17 17:52:38;;;;;;;50.17;26.12;;;;;;;4.02;100.00;101180.55;1788721;80;21147;-73
2023/12/17 17:55:09;;;;;;;44.98;25.02;;;;;;;4.05;100.00;101172.63;1788709;80;21110;-72
2023/12/17 17:57:39;;;;;;;49.27;24.95;;;;;;;4.04;100.00;101175.84;1788644;80;21081;-72
2023/12/17 18:00:09;;;;;;;49.80;26.30;;;;;;;4.06;100.00;101185.20;1788440;80;21190;-73
2023/12/17 18:02:39;;;;;;;50.08;25.77;;;;;;;4.05;100.00;101180.27;1788439;80;21581;-73
2023/12/17 18:05:09;;;;;;;56.20;27.62;;;;;;;4.05;100.00;101180.27;1788605;80;21122;-71
2023/12/17 18:07:37;;;;;;;48.52;26.10;;;;;;;4.05;100.00;101172.13;1788723;80;21107;-72
2023/12/17 18:10:08;;;;;;;55.20;28.95;;;;;;;4.07;100.00;101174.20;1788843;80;21149;-72
2023/12/17 18:12:37;;;;;;;50.55;26.12;;;;;;;4.06;100.00;101160.79;1788862;80;21146;-73
2023/12/17 18:15:07;;;;;;;53.13;26.27;;;;;;;4.08;100.00;101172.36;1788943;79;21123;-73
2023/12/17 18:17:36;;;;;;;51.13;25.72;;;;;;;4.08;100.00;101175.92;1788762;80;21131;-74
2023/12/17 18:20:06;;;;;;;49.88;25.08;;;;;;;4.09;100.00;101182.20;1788336;80;21166;-73
2023/12/17 18:22:36;;;;;;;51.25;25.02;;;;;;;4.09;100.00;101172.22;1771207;80;21119;-73
2023/12/17 18:25:05;;;;;;;51.83;27.65;;;;;;;4.12;100.00;101162.45;1788372;80;21108;-72
2023/12/17 18:27:34;;;;;;;54.95;26.73;;;;;;;4.14;100.00;101168.59;1788206;79;21087;-74
2023/12/17 18:30:03;;;;;;;58.50;29.57;;;;;;;4.14;100.00;101169.09;1770959;80;21111;-73
2023/12/17 18:32:34;;;;;;;74.97;32.98;;;;;;;4.14;100.00;101171.31;1788397;80;21115;-72
2023/12/17 18:35:03;;;;;;;57.05;29.30;;;;;;;4.16;100.00;101178.45;1765658;80;21142;-72
2023/12/17 18:37:32;;;;;;;60.10;30.97;;;;;;;4.13;100.00;101178.23;1757417;82;21133;-72
2023/12/17 18:40:01;;;;;;;52.73;26.87;;;;;;;4.09;100.00;101177.64;1757178;81;21125;-74
2023/12/17 18:42:29;;;;;;;48.70;26.37;;;;;;;4.09;100.00;101175.43;1757226;80;21140;-72
2023/12/17 18:44:58;;;;;;;54.42;25.55;;;;;;;4.09;100.00;101164.58;1757373;80;21580;-73
2023/12/17 18:47:27;;;;;;;53.40;26.15;;;;;;;4.09;100.00;101164.58;1757200;82;21149;-73
2023/12/17 18:49:55;;;;;;;49.20;24.20;;;;;;;4.08;100.00;101164.22;1706444;82;21130;-73
2023/12/17 18:52:23;;;;;;;49.85;24.50;;;;;;;4.07;100.00;101170.64;1757136;82;21113;-73
2023/12/17 18:54:59;;;;;;;47.27;24.77;;;;;;;4.07;100.00;101166.58;1757287;80;21131;-74
2023/12/17 18:57:29;;;;;;;49.37;23.83;;;;;;;4.07;100.00;101167.92;1731312;82;21117;-71
2023/12/17 18:59:58;;;;;;;49.20;24.43;;;;;;;4.07;100.00;101167.43;1757012;82;21666;-74
2023/12/17 19:02:27;;;;;;;55.60;26.20;;;;;;;4.07;100.00;101164.72;1730034;82;21152;-74
2023/12/17 19:04:55;;;;;;;53.00;26.80;;;;;;;4.06;100.00;101165.72;1757179;82;21598;-73
2023/12/17 19:07:24;;;;;;;48.30;24.60;;;;;;;4.06;100.00;101167.56;1719897;83;21126;-73
2023/12/17 19:09:52;;;;;;;48.25;23.10;;;;;;;4.05;100.00;101166.71;1733074;83;21118;-73
2023/12/17 19:12:21;;;;;;;46.92;23.67;;;;;;;4.05;100.00;101173.48;1733101;81;21197;-73
2023/12/17 19:14:50;;;;;;;55.30;25.05;;;;;;;4.06;100.00;101165.72;1733329;83;21167;-73
2023/12/17 19:17:19;;;;;;;52.73;24.00;;;;;;;4.05;100.00;101160.43;1733476;81;21534;-72
2023/12/17 19:19:47;;;;;;;52.73;24.95;;;;;;;4.04;100.00;101152.79;1733084;81;21110;-75
2023/12/17 19:22:19;;;;;;;58.75;26.52;;;;;;;4.05;100.00;101158.58;1712741;83;21185;-73
2023/12/17 19:24:47;;;;;;;50.63;24.98;;;;;;;4.06;100.00;101165.72;1733143;83;21087;-73
2023/12/17 19:27:16;;;;;;;47.90;23.52;;;;;;;4.06;100.00;101163.00;1712586;83;21138;-71
2023/12/17 19:29:45;;;;;;;53.95;25.20;;;;;;;4.06;100.00;101167.06;1733159;83;21188;-74
2023/12/17 19:32:13;;;;;;;51.88;24.60;;;;;;;4.08;100.00;101162.37;1732998;81;21193;-73
2023/12/17 19:34:42;;;;;;;51.23;25.05;;;;;;;4.09;100.00;101160.52;1739464;82;21159;-72
2023/12/17 19:37:10;;;;;;;52.78;24.57;;;;;;;4.09;100.00;101168.65;1744003;82;21174;-73
2023/12/17 19:39:40;;;;;;;54.03;25.30;;;;;;;4.08;100.00;101165.08;1743910;81;21579;-73
2023/12/17 19:42:09;;;;;;;58.92;25.05;;;;;;;4.09;100.00;101153.73;1743786;82;21252;-73
2023/12/17 19:44:38;;;;;;;60.15;24.67;;;;;;;4.09;100.00;101157.30;1733485;82;21127;-75
2023/12/17 19:47:07;;;;;;;64.55;26.97;;;;;;;4.11;100.00;101156.67;1743860;81;21690;-70
2023/12/17 19:49:35;;;;;;;60.12;26.27;;;;;;;4.13;100.00;101141.61;1743929;82;21123;-73
2023/12/17 19:52:06;;;;;;;69.07;29.32;;;;;;;4.14;100.00;101140.12;1733442;82;21555;-72
2023/12/17 19:54:38;;;;;;;57.83;26.60;;;;;;;4.18;100.00;101139.84;1733912;82;21148;-71
2023/12/17 19:57:07;;;;;;;64.32;26.77;;;;;;;4.19;100.00;101130.71;1743960;81;21116;-72
2023/12/17 19:59:36;;;;;;;60.45;24.98;;;;;;;4.21;100.00;101128.22;1733992;82;21166;-72
2023/12/17 20:02:04;;;;;;;56.48;25.37;;;;;;;4.23;100.00;101123.52;1744139;82;21131;-73
2023/12/17 20:04:33;;;;;;;66.30;26.70;;;;;;;4.23;100.00;101133.01;1743950;81;21120;-71
2023/12/17 20:07:02;;;;;;;58.28;24.82;;;;;;;4.25;100.00;101125.59;1747594;82;21119;-71
2023/12/17 20:09:30;;;;;;;54.95;25.15;;;;;;;4.26;100.00;101119.66;1757221;82;21115;-73
2023/12/17 20:11:59;;;;;;;59.83;27.37;;;;;;;4.27;100.00;101122.23;1757088;80;21558;-73
2023/12/17 20:14:28;;;;;;;60.12;25.43;;;;;;;4.29;100.00;101121.59;1757231;82;21143;-72
2023/12/17 20:16:57;;;;;;;56.30;24.43;;;;;;;4.33;100.00;101115.39;1757260;82;21633;-72
2023/12/17 20:19:25;;;;;;;59.23;24.40;;;;;;;4.37;100.00;101100.55;1757244;82;21111;-72
2023/12/17 20:21:54;;;;;;;62.05;27.58;;;;;;;4.39;100.00;101102.63;1757114;82;21158;-72
2023/12/17 20:24:22;;;;;;;63.35;27.10;;;;;;;4.41;100.00;101099.27;1740296;82;21143;-72
2023/12/17 20:26:51;;;;;;;67.72;28.60;;;;;;;4.42;100.00;101098.27;1757087;82;21166;-72
2023/12/17 20:29:20;;;;;;;59.40;26.85;;;;;;;4.42;100.00;101093.70;1757142;82;21123;-71
2023/12/17 20:31:48;;;;;;;56.40;26.48;;;;;;;4.44;100.00;101098.98;1757182;82;21178;-74
2023/12/17 20:34:17;;;;;;;58.15;25.60;;;;;;;4.44;100.00;101097.63;1770137;80;21143;-73
2023/12/17 20:36:46;;;;;;;57.98;25.40;;;;;;;4.46;100.00;101099.20;1788139;80;21107;-72
2023/12/17 20:39:14;;;;;;;58.60;25.90;;;;;;;4.46;100.00;101084.78;1770862;80;21111;-72
2023/12/17 20:41:43;;;;;;;51.88;23.50;;;;;;;4.46;100.00;101095.64;1788275;80;21745;-73
2023/12/17 20:44:11;;;;;;;61.60;27.25;;;;;;;4.45;100.00;101090.70;1788217;80;21150;-73
2023/12/17 20:46:40;;;;;;;52.85;22.48;;;;;;;4.47;100.00;101087.85;1788442;79;21107;-73
2023/12/17 20:49:08;;;;;;;52.35;23.40;;;;;;;4.48;100.00;101086.00;1788075;80;21130;-70
2023/12/17 20:51:37;;;;;;;48.60;21.73;;;;;;;4.48;100.00;101082.78;1788239;80;21550;-72
2023/12/17 20:54:05;;;;;;;53.00;22.58;;;;;;;4.50;100.00;101088.92;1771048;80;21146;-73
2023/12/17 20:56:36;;;;;;;46.77;20.55;;;;;;;4.49;100.00;101087.21;1788292;80;21166;-73
2023/12/17 20:59:05;;;;;;;48.15;21.07;;;;;;;4.51;100.00;101084.36;1788283;80;21111;-72
2023/12/17 21:01:33;;;;;;;52.35;23.80;;;;;;;4.52;100.00;101085.57;1788259;80;21099;-72
2023/12/17 21:04:03;;;;;;;39.88;19.02;;;;;;;4.53;100.00;101090.00;1788382;80;21083;-72
2023/12/17 21:06:31;;;;;;;39.42;18.70;;;;;;;4.53;100.00;101086.43;1788212;80;21578;-71
2023/12/17 21:09:00;;;;;;;46.45;19.57;;;;;;;4.53;100.00;101091.36;1788218;80;21126;-73
2023/12/17 21:11:29;;;;;;;42.30;19.37;;;;;;;4.52;100.00;101089.64;1770931;80;21558;-72
2023/12/17 21:13:57;;;;;;;50.65;22.58;;;;;;;4.54;100.00;101089.00;1788266;80;21103;-73
2023/12/17 21:16:26;;;;;;;46.28;20.40;;;;;;;4.57;100.00;101083.82;1770765;80;21142;-71
2023/12/17 21:18:54;;;;;;;43.65;19.75;;;;;;;4.57;100.00;101084.68;1788350;80;21107;-72
2023/12/17 21:21:23;;;;;;;53.02;23.45;;;;;;;4.57;100.00;101079.75;1788301;80;21079;-73
2023/12/17 21:23:51;;;;;;;47.35;20.40;;;;;;;4.58;100.00;101080.11;1788124;80;21614;-74
2023/12/17 21:26:20;;;;;;;49.55;20.62;;;;;;;4.59;100.00;101078.61;1788098;80;21151;-72
2023/12/17 21:28:49;;;;;;;47.00;20.85;;;;;;;4.57;100.00;101072.47;1788211;80;21151;-72
2023/12/17 21:31:17;;;;;;;47.10;21.73;;;;;;;4.60;100.00;101078.11;1788291;80;21139;-71
2023/12/17 21:33:46;;;;;;;41.88;19.25;;;;;;;4.60;100.00;101074.89;1787895;80;21185;-72
2023/12/17 21:36:15;;;;;;;48.73;21.93;;;;;;;4.61;100.00;101067.11;1719742;83;21139;-71
2023/12/17 21:38:43;;;;;;;45.08;21.33;;;;;;;4.64;100.00;101069.53;1719811;83;21131;-71
2023/12/17 21:41:11;;;;;;;42.30;19.02;;;;;;;4.65;100.00;101063.11;1732396;83;21199;-72
2023/12/17 21:43:41;;;;;;;46.53;21.17;;;;;;;4.63;100.00;101063.75;1719574;83;21910;-72
2023/12/17 21:46:11;;;;;;;58.20;27.60;;;;;;;4.62;100.00;101068.83;1719750;83;21190;-73
2023/12/17 21:48:40;;;;;;;48.13;21.57;;;;;;;4.63;100.00;101066.47;1732287;83;21112;-72
2023/12/17 21:51:09;;;;;;;46.68;21.33;;;;;;;4.62;100.00;101063.89;1719621;83;21178;-72
2023/12/17 21:53:38;;;;;;;55.00;24.60;;;;;;;4.60;100.00;101057.75;1719708;83;21591;-72
2023/12/17 21:56:06;;;;;;;52.90;24.27;;;;;;;4.59;100.00;101056.04;1732447;83;21154;-73
2023/12/17 21:58:35;;;;;;;58.73;25.50;;;;;;;4.57;100.00;101051.25;1719759;83;21819;-72
2023/12/17 22:01:04;;;;;;;56.50;25.32;;;;;;;4.57;100.00;101038.54;1719950;83;21179;-72
2023/12/17 22:03:32;;;;;;;62.48;31.68;;;;;;;4.56;100.00;101035.97;1708009;83;21593;-71
2023/12/17 22:06:01;;;;;;;49.33;23.27;;;;;;;4.54;100.00;101022.52;1719726;83;21135;-72
2023/12/17 22:08:30;;;;;;;63.40;28.40;;;;;;;4.53;100.00;101026.23;1711507;83;21742;-71
2023/12/17 22:11:01;;;;;;;62.83;29.05;;;;;;;4.54;100.00;101023.87;1772925;81;21582;-72
2023/12/17 22:13:30;;;;;;;72.20;33.25;;;;;;;4.53;100.00;101012.66;1686081;84;21111;-72
2023/12/17 22:15:58;;;;;;;69.12;33.02;;;;;;;4.53;100.00;101009.09;1772864;80;21135;-73
2023/12/17 22:18:27;;;;;;;56.60;25.12;;;;;;;4.54;100.00;101016.23;1686886;84;21230;-73
2023/12/17 22:20:56;;;;;;;64.58;30.37;;;;;;;4.50;100.00;100999.37;1773040;81;21115;-73
2023/12/17 22:23:24;;;;;;;77.03;34.55;;;;;;;4.50;100.00;100998.02;1706744;84;21131;-73
2023/12/17 22:25:52;;;;;;;78.72;34.53;;;;;;;4.49;100.00;100992.73;1772851;81;21616;-72
2023/12/17 22:28:21;;;;;;;69.55;32.65;;;;;;;4.48;100.00;100995.95;1687010;84;21223;-72
2023/12/17 22:30:49;;;;;;;67.82;26.20;;;;;;;4.47;100.00;100996.95;1772996;81;21143;-72
2023/12/17 22:33:18;;;;;;;62.20;28.50;;;;;;;4.48;100.00;100995.09;1772424;81;21127;-73
2023/12/17 22:35:46;;;;;;;62.15;29.87;;;;;;;4.49;100.00;101001.73;1733637;82;21125;-71
2023/12/17 22:38:15;;;;;;;63.08;32.00;;;;;;;4.49;100.00;100994.09;1743853;82;21592;-73
2023/12/17 22:40:43;;;;;;;61.05;29.37;;;;;;;4.50;100.00;100985.81;1744010;81;21137;-72
2023/12/17 22:43:12;;;;;;;68.52;31.48;;;;;;;4.49;100.00;100974.60;1744221;81;21144;-72
2023/12/17 22:45:40;;;;;;;64.75;31.50;;;;;;;4.49;100.00;100963.74;1733572;82;21161;-72
2023/12/17 22:48:08;;;;;;;66.62;31.42;;;;;;;4.49;100.00;100963.74;1743778;81;21184;-73
2023/12/17 22:50:37;;;;;;;53.10;25.27;;;;;;;4.51;100.00;100959.03;1733709;82;21121;-73
2023/12/17 22:53:06;;;;;;;62.85;29.20;;;;;;;4.51;100.00;100960.39;1743874;81;21448;-72
2023/12/17 22:55:34;;;;;;;45.70;21.62;;;;;;;4.52;100.00;100966.67;1733656;81;21165;-73
2023/12/17 22:58:03;;;;;;;54.27;25.45;;;;;;;4.51;100.00;100965.81;1733818;82;21109;-73
2023/12/17 23:00:32;;;;;;;52.40;25.02;;;;;;;4.50;100.00;100970.88;1743866;81;21160;-73
2023/12/17 23:03:00;;;;;;;52.13;25.75;;;;;;;4.51;100.00;100977.17;1743896;81;21568;-73
2023/12/17 23:05:29;;;;;;;62.67;30.15;;;;;;;4.51;100.00;100977.17;1743923;81;21188;-73
2023/12/17 23:07:58;;;;;;;52.55;27.98;;;;;;;4.53;100.00;100975.16;1746174;81;21156;-72
2023/12/17 23:10:27;;;;;;;59.67;31.57;;;;;;;4.54;100.00;100970.09;1751763;81;22185;-73
2023/12/17 23:12:55;;;;;;;78.78;39.65;;;;;;;4.54;100.00;100961.45;1751866;80;21172;-72
2023/12/17 23:15:24;;;;;;;53.60;26.68;;;;;;;4.50;100.00;100965.45;1751992;82;21173;-74
2023/12/17 23:17:53;;;;;;;63.75;31.90;;;;;;;4.46;100.00;100964.03;1751895;82;21268;-75
2023/12/17 23:20:21;;;;;;;60.70;29.60;;;;;;;4.43;100.00;100970.61;1751795;82;21105;-73
2023/12/17 23:22:49;;;;;;;60.23;30.23;;;;;;;4.42;100.00;100961.26;1751862;81;21560;-72
2023/12/17 23:25:18;;;;;;;51.00;25.55;;;;;;;4.40;100.00;100956.48;1751893;82;21629;-72
2023/12/17 23:27:46;;;;;;;71.53;34.50;;;;;;;4.39;100.00;100947.98;1751974;82;21195;-73
2023/12/17 23:30:15;;;;;;;65.65;32.78;;;;;;;4.38;100.00;100946.27;1751897;82;21117;-71
2023/12/17 23:32:43;;;;;;;41.63;20.92;;;;;;;4.39;100.00;100934.41;1733286;82;21236;-72
2023/12/17 23:35:12;;;;;;;50.48;26.05;;;;;;;4.37;100.00;100925.56;1773133;81;21084;-71
2023/12/17 23:37:41;;;;;;;45.90;23.65;;;;;;;4.34;100.00;100927.21;1712004;84;21183;-72
2023/12/17 23:40:11;;;;;;;40.03;20.50;;;;;;;4.33;100.00;100934.49;1711824;84;21155;-72
2023/12/17 23:42:40;;;;;;;47.23;24.80;;;;;;;4.30;100.00;100935.28;1778466;81;21609;-72
2023/12/17 23:45:09;;;;;;;63.45;30.70;;;;;;;4.27;100.00;100936.92;1778345;81;21103;-72
2023/12/17 23:47:39;;;;;;;62.80;34.25;;;;;;;4.25;100.00;100941.14;1778336;81;21162;-73
2023/12/17 23:50:09;;;;;;;67.45;33.45;;;;;;;4.25;100.00;100937.57;1712198;84;21146;-71
2023/12/17 23:52:37;;;;;;;51.23;26.12;;;;;;;4.22;100.00;100944.14;1778457;81;21115;-72
2023/12/17 23:55:08;;;;;;;46.28;23.92;;;;;;;4.25;100.00;100936.22;1778255;81;21629;-72
2023/12/17 23:57:36;;;;;;;50.10;24.65;;;;;;;4.23;100.00;100939.07;1712029;83;21642;-72
